sensor_id;sensor_type;location;lat;lon;timestamp;P1;durP1;ratioP1;P2;durP2;ratioP2
73296;SDS011;61524;50.938;11.396;2022-11-20T00:00:37;18.17;;;9.40;;
73296;SDS011;61524;50.938;11.396;2022-11-20T00:03:03;20.90;;;9.48;;
73296;SDS011;61524;50.938;11.396;2022-11-20T00:05:28;17.63;;;9.57;;
73296;SDS011;61524;50.938;11.396;2022-11-20T00:07:54;16.02;;;8.13;;
73296;SDS011;61524;50.938;11.396;2022-11-20T00:10:19;18.08;;;9.25;;
73296;SDS011;61524;50.938;11.396;2022-11-20T00:12:44;20.08;;;10.27;;
73296;SDS011;61524;50.938;11.396;2022-11-20T00:15:10;14.30;;;7.40;;
73296;SDS011;61524;50.938;11.396;2022-11-20T00:17:35;18.10;;;8.48;;
73296;SDS011;61524;50.938;11.396;2022-11-20T00:20:01;16.40;;;7.78;;
73296;SDS011;61524;50.938;11.396;2022-11-20T00:22:26;17.42;;;8.80;;
73296;SDS011;61524;50.938;11.396;2022-11-20T00:24:52;20.88;;;9.55;;
73296;SDS011;61524;50.938;11.396;2022-11-20T00:27:17;18.90;;;11.00;;
73296;SDS011;61524;50.938;11.396;2022-11-20T00:29:42;20.02;;;9.70;;
73296;SDS011;61524;50.938;11.396;2022-11-20T00:32:08;15.60;;;5.47;;
73296;SDS011;61524;50.938;11.396;2022-11-20T00:34:33;18.67;;;7.97;;
73296;SDS011;61524;50.938;11.396;2022-11-20T00:36:59;17.80;;;9.25;;
73296;SDS011;61524;50.938;11.396;2022-11-20T00:39:24;15.00;;;8.07;;
73296;SDS011;61524;50.938;11.396;2022-11-20T00:41:49;13.00;;;8.02;;
73296;SDS011;61524;50.938;11.396;2022-11-20T00:44:15;18.27;;;10.13;;
73296;SDS011;61524;50.938;11.396;2022-11-20T00:46:40;17.02;;;8.77;;
73296;SDS011;61524;50.938;11.396;2022-11-20T00:49:06;16.30;;;7.53;;
73296;SDS011;61524;50.938;11.396;2022-11-20T00:51:31;15.10;;;9.85;;
73296;SDS011;61524;50.938;11.396;2022-11-20T00:53:57;18.48;;;8.68;;
73296;SDS011;61524;50.938;11.396;2022-11-20T00:58:50;14.18;;;7.47;;
73296;SDS011;61524;50.938;11.396;2022-11-20T01:03:44;18.80;;;9.38;;
73296;SDS011;61524;50.938;11.396;2022-11-20T01:06:15;15.77;;;8.93;;
73296;SDS011;61524;50.938;11.396;2022-11-20T01:08:43;18.60;;;9.02;;
73296;SDS011;61524;50.938;11.396;2022-11-20T01:11:13;17.10;;;8.93;;
73296;SDS011;61524;50.938;11.396;2022-11-20T01:13:44;18.27;;;8.93;;
73296;SDS011;61524;50.938;11.396;2022-11-20T01:16:12;20.73;;;9.82;;
73296;SDS011;61524;50.938;11.396;2022-11-20T01:21:14;10.95;;;8.93;;
73296;SDS011;61524;50.938;11.396;2022-11-20T01:23:41;12.98;;;7.68;;
73296;SDS011;61524;50.938;11.396;2022-11-20T01:26:10;15.98;;;9.02;;
73296;SDS011;61524;50.938;11.396;2022-11-20T01:28:39;15.75;;;9.00;;
73296;SDS011;61524;50.938;11.396;2022-11-20T01:33:42;11.55;;;8.27;;
73296;SDS011;61524;50.938;11.396;2022-11-20T01:36:08;14.60;;;8.45;;
73296;SDS011;61524;50.938;11.396;2022-11-20T01:38:34;17.67;;;9.82;;
73296;SDS011;61524;50.938;11.396;2022-11-20T01:41:00;18.95;;;9.05;;
73296;SDS011;61524;50.938;11.396;2022-11-20T01:43:26;17.35;;;10.25;;
73296;SDS011;61524;50.938;11.396;2022-11-20T01:48:25;14.00;;;8.60;;
73296;SDS011;61524;50.938;11.396;2022-11-20T01:50:55;16.63;;;7.72;;
73296;SDS011;61524;50.938;11.396;2022-11-20T01:53:23;14.70;;;7.00;;
73296;SDS011;61524;50.938;11.396;2022-11-20T01:55:56;18.48;;;7.63;;
73296;SDS011;61524;50.938;11.396;2022-11-20T01:58:25;17.98;;;10.45;;
73296;SDS011;61524;50.938;11.396;2022-11-20T02:00:55;18.25;;;10.05;;
73296;SDS011;61524;50.938;11.396;2022-11-20T02:03:21;23.88;;;9.90;;
73296;SDS011;61524;50.938;11.396;2022-11-20T02:08:18;15.20;;;6.38;;
73296;SDS011;61524;50.938;11.396;2022-11-20T02:10:44;18.00;;;8.38;;
73296;SDS011;61524;50.938;11.396;2022-11-20T02:13:10;16.38;;;8.00;;
73296;SDS011;61524;50.938;11.396;2022-11-20T02:15:54;15.48;;;8.38;;
73296;SDS011;61524;50.938;11.396;2022-11-20T02:18:20;13.82;;;8.60;;
73296;SDS011;61524;50.938;11.396;2022-11-20T02:20:48;16.17;;;9.43;;
73296;SDS011;61524;50.938;11.396;2022-11-20T02:25:52;25.05;;;10.65;;
73296;SDS011;61524;50.938;11.396;2022-11-20T02:28:19;15.55;;;8.85;;
73296;SDS011;61524;50.938;11.396;2022-11-20T02:30:45;18.27;;;9.93;;
73296;SDS011;61524;50.938;11.396;2022-11-20T02:33:11;19.52;;;9.60;;
73296;SDS011;61524;50.938;11.396;2022-11-20T02:35:44;15.90;;;8.88;;
73296;SDS011;61524;50.938;11.396;2022-11-20T02:38:11;17.90;;;8.93;;
73296;SDS011;61524;50.938;11.396;2022-11-20T02:40:37;17.95;;;8.13;;
73296;SDS011;61524;50.938;11.396;2022-11-20T02:43:03;17.42;;;8.18;;
73296;SDS011;61524;50.938;11.396;2022-11-20T02:45:28;19.13;;;9.63;;
73296;SDS011;61524;50.938;11.396;2022-11-20T02:47:54;19.80;;;9.38;;
73296;SDS011;61524;50.938;11.396;2022-11-20T02:50:19;15.23;;;8.75;;
73296;SDS011;61524;50.938;11.396;2022-11-20T02:52:45;17.20;;;7.65;;
73296;SDS011;61524;50.938;11.396;2022-11-20T02:55:10;14.10;;;8.85;;
73296;SDS011;61524;50.938;11.396;2022-11-20T02:57:36;15.73;;;9.27;;
73296;SDS011;61524;50.938;11.396;2022-11-20T03:00:02;18.13;;;8.95;;
73296;SDS011;61524;50.938;11.396;2022-11-20T03:02:29;22.45;;;11.45;;
73296;SDS011;61524;50.938;11.396;2022-11-20T03:04:55;19.13;;;10.00;;
73296;SDS011;61524;50.938;11.396;2022-11-20T03:07:21;18.35;;;9.15;;
73296;SDS011;61524;50.938;11.396;2022-11-20T03:09:46;12.65;;;7.68;;
73296;SDS011;61524;50.938;11.396;2022-11-20T03:12:11;18.30;;;9.55;;
73296;SDS011;61524;50.938;11.396;2022-11-20T03:14:37;17.52;;;8.55;;
73296;SDS011;61524;50.938;11.396;2022-11-20T03:17:02;16.52;;;8.55;;
73296;SDS011;61524;50.938;11.396;2022-11-20T03:19:28;17.20;;;8.73;;
73296;SDS011;61524;50.938;11.396;2022-11-20T03:21:53;18.92;;;9.13;;
73296;SDS011;61524;50.938;11.396;2022-11-20T03:24:19;14.60;;;7.97;;
73296;SDS011;61524;50.938;11.396;2022-11-20T03:26:44;17.80;;;8.88;;
73296;SDS011;61524;50.938;11.396;2022-11-20T03:29:09;17.90;;;7.80;;
73296;SDS011;61524;50.938;11.396;2022-11-20T03:31:36;17.35;;;7.55;;
73296;SDS011;61524;50.938;11.396;2022-11-20T03:34:05;20.27;;;8.85;;
73296;SDS011;61524;50.938;11.396;2022-11-20T03:36:31;15.63;;;7.95;;
73296;SDS011;61524;50.938;11.396;2022-11-20T03:38:57;15.52;;;7.40;;
73296;SDS011;61524;50.938;11.396;2022-11-20T03:41:23;19.20;;;8.30;;
73296;SDS011;61524;50.938;11.396;2022-11-20T03:46:17;14.82;;;7.07;;
73296;SDS011;61524;50.938;11.396;2022-11-20T03:48:43;11.38;;;7.50;;
73296;SDS011;61524;50.938;11.396;2022-11-20T03:53:39;19.67;;;10.88;;
73296;SDS011;61524;50.938;11.396;2022-11-20T03:56:05;21.90;;;8.95;;
73296;SDS011;61524;50.938;11.396;2022-11-20T03:58:32;15.90;;;8.30;;
73296;SDS011;61524;50.938;11.396;2022-11-20T04:01:03;16.25;;;6.95;;
73296;SDS011;61524;50.938;11.396;2022-11-20T04:03:30;16.27;;;8.35;;
73296;SDS011;61524;50.938;11.396;2022-11-20T04:05:55;15.77;;;8.43;;
73296;SDS011;61524;50.938;11.396;2022-11-20T04:08:28;16.67;;;7.68;;
73296;SDS011;61524;50.938;11.396;2022-11-20T04:10:53;18.08;;;7.82;;
73296;SDS011;61524;50.938;11.396;2022-11-20T04:13:19;18.88;;;10.32;;
73296;SDS011;61524;50.938;11.396;2022-11-20T04:15:44;13.88;;;6.65;;
73296;SDS011;61524;50.938;11.396;2022-11-20T04:18:09;19.17;;;9.00;;
73296;SDS011;61524;50.938;11.396;2022-11-20T04:20:35;18.65;;;9.85;;
73296;SDS011;61524;50.938;11.396;2022-11-20T04:23:00;18.85;;;9.35;;
73296;SDS011;61524;50.938;11.396;2022-11-20T04:25:26;13.02;;;6.75;;
73296;SDS011;61524;50.938;11.396;2022-11-20T04:27:51;15.43;;;8.85;;
73296;SDS011;61524;50.938;11.396;2022-11-20T04:30:16;16.48;;;8.02;;
73296;SDS011;61524;50.938;11.396;2022-11-20T04:32:42;20.27;;;9.02;;
73296;SDS011;61524;50.938;11.396;2022-11-20T04:35:07;16.27;;;8.63;;
73296;SDS011;61524;50.938;11.396;2022-11-20T04:37:33;21.17;;;8.20;;
73296;SDS011;61524;50.938;11.396;2022-11-20T04:39:58;18.90;;;10.18;;
73296;SDS011;61524;50.938;11.396;2022-11-20T04:42:24;16.88;;;10.43;;
73296;SDS011;61524;50.938;11.396;2022-11-20T04:44:55;16.00;;;9.00;;
73296;SDS011;61524;50.938;11.396;2022-11-20T04:47:21;12.07;;;7.18;;
73296;SDS011;61524;50.938;11.396;2022-11-20T04:49:47;19.48;;;7.90;;
73296;SDS011;61524;50.938;11.396;2022-11-20T04:52:12;15.73;;;7.63;;
73296;SDS011;61524;50.938;11.396;2022-11-20T04:54:38;15.30;;;8.80;;
73296;SDS011;61524;50.938;11.396;2022-11-20T04:57:03;8.52;;;5.57;;
73296;SDS011;61524;50.938;11.396;2022-11-20T04:59:29;9.82;;;6.10;;
73296;SDS011;61524;50.938;11.396;2022-11-20T05:01:54;12.27;;;7.65;;
73296;SDS011;61524;50.938;11.396;2022-11-20T05:04:20;18.38;;;10.15;;
73296;SDS011;61524;50.938;11.396;2022-11-20T05:06:45;16.75;;;8.63;;
73296;SDS011;61524;50.938;11.396;2022-11-20T05:09:11;15.90;;;9.15;;
73296;SDS011;61524;50.938;11.396;2022-11-20T05:11:37;13.90;;;8.23;;
73296;SDS011;61524;50.938;11.396;2022-11-20T05:14:03;16.95;;;9.05;;
73296;SDS011;61524;50.938;11.396;2022-11-20T05:16:28;15.35;;;7.22;;
73296;SDS011;61524;50.938;11.396;2022-11-20T05:18:54;22.25;;;8.02;;
73296;SDS011;61524;50.938;11.396;2022-11-20T05:21:20;16.60;;;6.78;;
73296;SDS011;61524;50.938;11.396;2022-11-20T05:23:46;15.00;;;8.95;;
73296;SDS011;61524;50.938;11.396;2022-11-20T05:26:13;14.60;;;8.35;;
73296;SDS011;61524;50.938;11.396;2022-11-20T05:28:43;14.80;;;8.43;;
73296;SDS011;61524;50.938;11.396;2022-11-20T05:31:10;11.95;;;6.93;;
73296;SDS011;61524;50.938;11.396;2022-11-20T05:33:38;14.10;;;7.97;;
73296;SDS011;61524;50.938;11.396;2022-11-20T05:38:30;11.70;;;6.07;;
73296;SDS011;61524;50.938;11.396;2022-11-20T05:41:02;11.35;;;7.20;;
73296;SDS011;61524;50.938;11.396;2022-11-20T05:43:34;13.65;;;7.80;;
73296;SDS011;61524;50.938;11.396;2022-11-20T05:46:00;10.95;;;6.13;;
73296;SDS011;61524;50.938;11.396;2022-11-20T05:48:26;16.63;;;7.60;;
73296;SDS011;61524;50.938;11.396;2022-11-20T05:50:51;16.98;;;8.75;;
73296;SDS011;61524;50.938;11.396;2022-11-20T05:53:17;12.13;;;7.13;;
73296;SDS011;61524;50.938;11.396;2022-11-20T05:55:42;14.52;;;8.52;;
73296;SDS011;61524;50.938;11.396;2022-11-20T05:58:08;18.95;;;7.15;;
73296;SDS011;61524;50.938;11.396;2022-11-20T06:00:33;16.38;;;9.13;;
73296;SDS011;61524;50.938;11.396;2022-11-20T06:02:58;16.15;;;9.70;;
73296;SDS011;61524;50.938;11.396;2022-11-20T06:05:24;18.73;;;8.55;;
73296;SDS011;61524;50.938;11.396;2022-11-20T06:07:49;23.05;;;10.05;;
73296;SDS011;61524;50.938;11.396;2022-11-20T06:10:15;19.30;;;9.23;;
73296;SDS011;61524;50.938;11.396;2022-11-20T06:12:40;15.73;;;7.25;;
73296;SDS011;61524;50.938;11.396;2022-11-20T06:15:06;13.73;;;7.05;;
73296;SDS011;61524;50.938;11.396;2022-11-20T06:17:31;14.25;;;6.45;;
73296;SDS011;61524;50.938;11.396;2022-11-20T06:19:57;16.70;;;8.68;;
73296;SDS011;61524;50.938;11.396;2022-11-20T06:22:23;18.52;;;9.05;;
73296;SDS011;61524;50.938;11.396;2022-11-20T06:24:48;16.25;;;7.38;;
73296;SDS011;61524;50.938;11.396;2022-11-20T06:27:13;18.23;;;8.93;;
73296;SDS011;61524;50.938;11.396;2022-11-20T06:29:39;13.40;;;7.20;;
73296;SDS011;61524;50.938;11.396;2022-11-20T06:32:04;14.88;;;7.15;;
73296;SDS011;61524;50.938;11.396;2022-11-20T06:34:30;13.82;;;7.50;;
73296;SDS011;61524;50.938;11.396;2022-11-20T06:36:55;13.45;;;6.43;;
73296;SDS011;61524;50.938;11.396;2022-11-20T06:39:21;16.30;;;7.88;;
73296;SDS011;61524;50.938;11.396;2022-11-20T06:41:46;12.00;;;7.22;;
73296;SDS011;61524;50.938;11.396;2022-11-20T06:44:12;11.60;;;6.00;;
73296;SDS011;61524;50.938;11.396;2022-11-20T06:46:37;10.48;;;6.82;;
73296;SDS011;61524;50.938;11.396;2022-11-20T06:49:02;10.15;;;6.22;;
73296;SDS011;61524;50.938;11.396;2022-11-20T06:51:28;12.93;;;6.95;;
73296;SDS011;61524;50.938;11.396;2022-11-20T06:53:53;10.23;;;5.70;;
73296;SDS011;61524;50.938;11.396;2022-11-20T06:56:19;11.98;;;6.90;;
73296;SDS011;61524;50.938;11.396;2022-11-20T06:58:45;8.48;;;4.93;;
73296;SDS011;61524;50.938;11.396;2022-11-20T07:01:11;8.27;;;4.55;;
73296;SDS011;61524;50.938;11.396;2022-11-20T07:03:38;7.28;;;4.22;;
73296;SDS011;61524;50.938;11.396;2022-11-20T07:06:04;10.20;;;7.75;;
73296;SDS011;61524;50.938;11.396;2022-11-20T07:08:31;17.52;;;7.90;;
73296;SDS011;61524;50.938;11.396;2022-11-20T07:10:57;9.55;;;5.53;;
73296;SDS011;61524;50.938;11.396;2022-11-20T07:13:27;9.05;;;6.57;;
73296;SDS011;61524;50.938;11.396;2022-11-20T07:15:54;8.05;;;4.25;;
73296;SDS011;61524;50.938;11.396;2022-11-20T07:18:19;11.52;;;6.93;;
73296;SDS011;61524;50.938;11.396;2022-11-20T07:20:45;5.88;;;5.22;;
73296;SDS011;61524;50.938;11.396;2022-11-20T07:23:10;15.70;;;5.47;;
73296;SDS011;61524;50.938;11.396;2022-11-20T07:25:36;9.20;;;5.65;;
73296;SDS011;61524;50.938;11.396;2022-11-20T07:28:01;7.63;;;4.32;;
73296;SDS011;61524;50.938;11.396;2022-11-20T07:30:27;14.45;;;7.40;;
73296;SDS011;61524;50.938;11.396;2022-11-20T07:32:53;9.10;;;5.07;;
73296;SDS011;61524;50.938;11.396;2022-11-20T07:35:20;9.50;;;6.20;;
73296;SDS011;61524;50.938;11.396;2022-11-20T07:37:46;9.02;;;6.50;;
73296;SDS011;61524;50.938;11.396;2022-11-20T07:40:15;12.85;;;6.53;;
73296;SDS011;61524;50.938;11.396;2022-11-20T07:42:51;10.25;;;5.43;;
73296;SDS011;61524;50.938;11.396;2022-11-20T07:45:18;11.30;;;5.80;;
73296;SDS011;61524;50.938;11.396;2022-11-20T07:47:44;21.02;;;9.23;;
73296;SDS011;61524;50.938;11.396;2022-11-20T07:50:10;11.98;;;6.13;;
73296;SDS011;61524;50.938;11.396;2022-11-20T07:52:36;14.55;;;8.48;;
73296;SDS011;61524;50.938;11.396;2022-11-20T07:55:01;15.13;;;5.72;;
73296;SDS011;61524;50.938;11.396;2022-11-20T07:57:27;15.80;;;7.43;;
73296;SDS011;61524;50.938;11.396;2022-11-20T07:59:52;15.68;;;7.43;;
73296;SDS011;61524;50.938;11.396;2022-11-20T08:02:18;11.75;;;6.47;;
73296;SDS011;61524;50.938;11.396;2022-11-20T08:04:43;15.63;;;6.85;;
73296;SDS011;61524;50.938;11.396;2022-11-20T08:07:08;15.48;;;6.72;;
73296;SDS011;61524;50.938;11.396;2022-11-20T08:09:34;16.83;;;6.57;;
73296;SDS011;61524;50.938;11.396;2022-11-20T08:11:59;15.10;;;7.10;;
73296;SDS011;61524;50.938;11.396;2022-11-20T08:14:43;17.30;;;9.40;;
73296;SDS011;61524;50.938;11.396;2022-11-20T08:17:08;14.52;;;8.13;;
73296;SDS011;61524;50.938;11.396;2022-11-20T08:19:34;14.40;;;7.07;;
73296;SDS011;61524;50.938;11.396;2022-11-20T08:22:00;13.65;;;8.15;;
73296;SDS011;61524;50.938;11.396;2022-11-20T08:24:25;16.38;;;8.07;;
73296;SDS011;61524;50.938;11.396;2022-11-20T08:26:51;14.23;;;6.95;;
73296;SDS011;61524;50.938;11.396;2022-11-20T08:29:17;16.67;;;8.13;;
73296;SDS011;61524;50.938;11.396;2022-11-20T08:31:42;11.70;;;7.05;;
73296;SDS011;61524;50.938;11.396;2022-11-20T08:34:08;8.77;;;5.55;;
73296;SDS011;61524;50.938;11.396;2022-11-20T08:36:33;10.50;;;4.20;;
73296;SDS011;61524;50.938;11.396;2022-11-20T08:39:00;14.75;;;7.35;;
73296;SDS011;61524;50.938;11.396;2022-11-20T08:41:26;14.00;;;7.75;;
73296;SDS011;61524;50.938;11.396;2022-11-20T08:43:56;17.90;;;8.07;;
73296;SDS011;61524;50.938;11.396;2022-11-20T08:46:24;19.13;;;7.68;;
73296;SDS011;61524;50.938;11.396;2022-11-20T08:53:42;15.05;;;6.40;;
73296;SDS011;61524;50.938;11.396;2022-11-20T08:56:08;12.45;;;6.55;;
73296;SDS011;61524;50.938;11.396;2022-11-20T08:58:34;11.90;;;6.43;;
73296;SDS011;61524;50.938;11.396;2022-11-20T09:01:00;12.68;;;6.78;;
73296;SDS011;61524;50.938;11.396;2022-11-20T09:03:26;15.93;;;5.95;;
73296;SDS011;61524;50.938;11.396;2022-11-20T09:06:03;14.75;;;6.53;;
73296;SDS011;61524;50.938;11.396;2022-11-20T09:08:30;13.60;;;7.30;;
73296;SDS011;61524;50.938;11.396;2022-11-20T09:10:56;14.73;;;6.47;;
73296;SDS011;61524;50.938;11.396;2022-11-20T09:13:23;13.65;;;6.68;;
73296;SDS011;61524;50.938;11.396;2022-11-20T09:15:57;17.42;;;8.02;;
73296;SDS011;61524;50.938;11.396;2022-11-20T09:18:24;17.38;;;7.95;;
73296;SDS011;61524;50.938;11.396;2022-11-20T09:20:50;18.00;;;8.38;;
73296;SDS011;61524;50.938;11.396;2022-11-20T09:23:16;17.67;;;7.72;;
73296;SDS011;61524;50.938;11.396;2022-11-20T09:25:42;20.85;;;8.65;;
73296;SDS011;61524;50.938;11.396;2022-11-20T09:28:09;16.30;;;8.85;;
73296;SDS011;61524;50.938;11.396;2022-11-20T09:30:34;14.95;;;6.80;;
73296;SDS011;61524;50.938;11.396;2022-11-20T09:33:00;17.15;;;7.97;;
73296;SDS011;61524;50.938;11.396;2022-11-20T09:35:26;14.25;;;6.22;;
73296;SDS011;61524;50.938;11.396;2022-11-20T09:37:51;15.55;;;7.18;;
73296;SDS011;61524;50.938;11.396;2022-11-20T09:40:26;15.48;;;7.40;;
73296;SDS011;61524;50.938;11.396;2022-11-20T09:54:46;15.98;;;7.28;;
73296;SDS011;61524;50.938;11.396;2022-11-20T09:59:42;15.15;;;6.65;;
73296;SDS011;61524;50.938;11.396;2022-11-20T10:02:58;12.90;;;6.63;;
73296;SDS011;61524;50.938;11.396;2022-11-20T10:05:19;16.20;;;7.45;;
73296;SDS011;61524;50.938;11.396;2022-11-20T10:10:34;15.00;;;7.85;;
73296;SDS011;61524;50.938;11.396;2022-11-20T10:23:28;12.73;;;6.70;;
73296;SDS011;61524;50.938;11.396;2022-11-20T10:29:12;15.32;;;7.40;;
73296;SDS011;61524;50.938;11.396;2022-11-20T10:31:41;14.20;;;7.03;;
73296;SDS011;61524;50.938;11.396;2022-11-20T10:37:20;17.70;;;8.50;;
73296;SDS011;61524;50.938;11.396;2022-11-20T10:39:54;16.45;;;7.70;;
73296;SDS011;61524;50.938;11.396;2022-11-20T10:42:29;15.40;;;8.63;;
73296;SDS011;61524;50.938;11.396;2022-11-20T10:45:10;15.07;;;7.30;;
73296;SDS011;61524;50.938;11.396;2022-11-20T10:47:44;15.77;;;7.88;;
73296;SDS011;61524;50.938;11.396;2022-11-20T10:50:11;14.18;;;6.97;;
73296;SDS011;61524;50.938;11.396;2022-11-20T10:58:10;16.30;;;7.15;;
73296;SDS011;61524;50.938;11.396;2022-11-20T11:00:42;15.90;;;7.32;;
73296;SDS011;61524;50.938;11.396;2022-11-20T11:03:40;15.52;;;8.35;;
73296;SDS011;61524;50.938;11.396;2022-11-20T11:06:04;15.63;;;6.88;;
73296;SDS011;61524;50.938;11.396;2022-11-20T11:08:37;15.35;;;7.95;;
73296;SDS011;61524;50.938;11.396;2022-11-20T11:11:18;17.13;;;8.40;;
73296;SDS011;61524;50.938;11.396;2022-11-20T11:13:48;17.73;;;9.00;;
73296;SDS011;61524;50.938;11.396;2022-11-20T11:16:24;17.80;;;8.85;;
73296;SDS011;61524;50.938;11.396;2022-11-20T11:18:51;15.57;;;8.05;;
73296;SDS011;61524;50.938;11.396;2022-11-20T11:21:23;23.77;;;9.50;;
73296;SDS011;61524;50.938;11.396;2022-11-20T11:23:57;27.70;;;11.57;;
73296;SDS011;61524;50.938;11.396;2022-11-20T11:26:28;19.27;;;9.93;;
73296;SDS011;61524;50.938;11.396;2022-11-20T11:28:58;18.92;;;8.30;;
73296;SDS011;61524;50.938;11.396;2022-11-20T11:31:29;22.05;;;9.30;;
73296;SDS011;61524;50.938;11.396;2022-11-20T11:36:30;21.00;;;10.07;;
73296;SDS011;61524;50.938;11.396;2022-11-20T11:38:59;20.77;;;9.43;;
73296;SDS011;61524;50.938;11.396;2022-11-20T11:41:28;19.17;;;9.68;;
73296;SDS011;61524;50.938;11.396;2022-11-20T11:44:00;19.52;;;9.27;;
73296;SDS011;61524;50.938;11.396;2022-11-20T11:46:58;19.55;;;9.18;;
73296;SDS011;61524;50.938;11.396;2022-11-20T11:49:24;30.70;;;9.80;;
73296;SDS011;61524;50.938;11.396;2022-11-20T11:52:04;25.95;;;10.60;;
73296;SDS011;61524;50.938;11.396;2022-11-20T11:54:58;24.65;;;10.75;;
73296;SDS011;61524;50.938;11.396;2022-11-20T11:57:34;16.63;;;7.38;;
73296;SDS011;61524;50.938;11.396;2022-11-20T12:02:36;18.25;;;7.78;;
73296;SDS011;61524;50.938;11.396;2022-11-20T12:10:15;17.02;;;7.72;;
73296;SDS011;61524;50.938;11.396;2022-11-20T12:12:46;19.88;;;9.13;;
73296;SDS011;61524;50.938;11.396;2022-11-20T12:15:20;20.10;;;8.38;;
73296;SDS011;61524;50.938;11.396;2022-11-20T12:17:51;18.20;;;8.40;;
73296;SDS011;61524;50.938;11.396;2022-11-20T12:20:16;17.33;;;7.85;;
73296;SDS011;61524;50.938;11.396;2022-11-20T12:31:11;18.77;;;10.05;;
73296;SDS011;61524;50.938;11.396;2022-11-20T12:39:51;19.52;;;8.35;;
73296;SDS011;61524;50.938;11.396;2022-11-20T12:42:23;17.52;;;8.80;;
73296;SDS011;61524;50.938;11.396;2022-11-20T12:45:49;23.73;;;9.73;;
73296;SDS011;61524;50.938;11.396;2022-11-20T12:48:31;21.02;;;8.63;;
73296;SDS011;61524;50.938;11.396;2022-11-20T13:10:20;19.05;;;8.82;;
73296;SDS011;61524;50.938;11.396;2022-11-20T13:13:04;19.98;;;9.98;;
73296;SDS011;61524;50.938;11.396;2022-11-20T13:15:50;22.67;;;9.30;;
73296;SDS011;61524;50.938;11.396;2022-11-20T13:18:21;21.33;;;9.70;;
73296;SDS011;61524;50.938;11.396;2022-11-20T13:20:46;21.60;;;10.32;;
73296;SDS011;61524;50.938;11.396;2022-11-20T13:23:24;22.42;;;9.02;;
73296;SDS011;61524;50.938;11.396;2022-11-20T13:25:51;20.38;;;10.05;;
73296;SDS011;61524;50.938;11.396;2022-11-20T13:28:38;20.90;;;10.43;;
73296;SDS011;61524;50.938;11.396;2022-11-20T13:31:09;21.38;;;9.45;;
73296;SDS011;61524;50.938;11.396;2022-11-20T13:33:50;26.27;;;11.63;;
73296;SDS011;61524;50.938;11.396;2022-11-20T13:36:23;26.40;;;11.88;;
73296;SDS011;61524;50.938;11.396;2022-11-20T13:38:52;24.38;;;10.13;;
73296;SDS011;61524;50.938;11.396;2022-11-20T13:41:29;28.60;;;11.77;;
73296;SDS011;61524;50.938;11.396;2022-11-20T13:43:59;25.02;;;11.57;;
73296;SDS011;61524;50.938;11.396;2022-11-20T13:46:38;29.42;;;11.77;;
73296;SDS011;61524;50.938;11.396;2022-11-20T13:51:49;27.85;;;11.70;;
73296;SDS011;61524;50.938;11.396;2022-11-20T14:02:27;34.30;;;14.75;;
73296;SDS011;61524;50.938;11.396;2022-11-20T14:04:56;29.80;;;13.07;;
73296;SDS011;61524;50.938;11.396;2022-11-20T14:07:31;32.08;;;13.30;;
73296;SDS011;61524;50.938;11.396;2022-11-20T14:10:01;30.85;;;12.13;;
73296;SDS011;61524;50.938;11.396;2022-11-20T14:12:28;26.77;;;11.48;;
73296;SDS011;61524;50.938;11.396;2022-11-20T14:14:55;25.85;;;11.80;;
73296;SDS011;61524;50.938;11.396;2022-11-20T14:17:22;26.40;;;11.40;;
73296;SDS011;61524;50.938;11.396;2022-11-20T14:19:54;27.70;;;12.07;;
73296;SDS011;61524;50.938;11.396;2022-11-20T14:22:25;25.23;;;11.68;;
73296;SDS011;61524;50.938;11.396;2022-11-20T14:27:32;27.20;;;10.27;;
73296;SDS011;61524;50.938;11.396;2022-11-20T14:30:00;24.77;;;11.88;;
73296;SDS011;61524;50.938;11.396;2022-11-20T14:32:27;27.35;;;12.88;;
73296;SDS011;61524;50.938;11.396;2022-11-20T14:34:55;33.88;;;13.63;;
73296;SDS011;61524;50.938;11.396;2022-11-20T14:37:26;28.77;;;11.98;;
73296;SDS011;61524;50.938;11.396;2022-11-20T14:39:58;28.33;;;12.40;;
73296;SDS011;61524;50.938;11.396;2022-11-20T14:42:27;32.40;;;13.60;;
73296;SDS011;61524;50.938;11.396;2022-11-20T14:44:57;27.08;;;12.38;;
73296;SDS011;61524;50.938;11.396;2022-11-20T14:47:26;28.80;;;11.88;;
73296;SDS011;61524;50.938;11.396;2022-11-20T14:49:54;28.52;;;12.50;;
73296;SDS011;61524;50.938;11.396;2022-11-20T14:52:23;32.83;;;14.68;;
73296;SDS011;61524;50.938;11.396;2022-11-20T14:54:50;35.58;;;14.27;;
73296;SDS011;61524;50.938;11.396;2022-11-20T14:57:27;30.95;;;13.82;;
73296;SDS011;61524;50.938;11.396;2022-11-20T15:00:08;30.58;;;12.45;;
73296;SDS011;61524;50.938;11.396;2022-11-20T15:02:50;26.17;;;11.75;;
73296;SDS011;61524;50.938;11.396;2022-11-20T15:05:17;27.98;;;11.73;;
73296;SDS011;61524;50.938;11.396;2022-11-20T15:07:48;27.42;;;12.68;;
73296;SDS011;61524;50.938;11.396;2022-11-20T15:10:22;31.00;;;11.43;;
73296;SDS011;61524;50.938;11.396;2022-11-20T15:12:54;27.00;;;10.68;;
73296;SDS011;61524;50.938;11.396;2022-11-20T15:15:46;26.73;;;9.65;;
73296;SDS011;61524;50.938;11.396;2022-11-20T15:18:15;24.35;;;10.63;;
73296;SDS011;61524;50.938;11.396;2022-11-20T15:20:43;23.10;;;9.73;;
73296;SDS011;61524;50.938;11.396;2022-11-20T15:23:12;30.23;;;11.02;;
73296;SDS011;61524;50.938;11.396;2022-11-20T15:25:39;26.50;;;9.13;;
73296;SDS011;61524;50.938;11.396;2022-11-20T15:28:48;22.80;;;9.80;;
73296;SDS011;61524;50.938;11.396;2022-11-20T15:30:56;22.48;;;9.20;;
73296;SDS011;61524;50.938;11.396;2022-11-20T15:33:21;27.55;;;10.48;;
73296;SDS011;61524;50.938;11.396;2022-11-20T15:35:47;25.10;;;10.00;;
73296;SDS011;61524;50.938;11.396;2022-11-20T15:38:13;27.63;;;9.77;;
73296;SDS011;61524;50.938;11.396;2022-11-20T15:40:38;25.45;;;11.40;;
73296;SDS011;61524;50.938;11.396;2022-11-20T15:43:04;27.83;;;9.95;;
73296;SDS011;61524;50.938;11.396;2022-11-20T15:45:35;24.50;;;9.95;;
73296;SDS011;61524;50.938;11.396;2022-11-20T15:48:02;26.27;;;10.07;;
73296;SDS011;61524;50.938;11.396;2022-11-20T15:50:37;22.98;;;9.75;;
73296;SDS011;61524;50.938;11.396;2022-11-20T15:53:04;22.45;;;8.93;;
73296;SDS011;61524;50.938;11.396;2022-11-20T15:55:30;27.27;;;11.25;;
73296;SDS011;61524;50.938;11.396;2022-11-20T15:57:56;27.60;;;11.38;;
73296;SDS011;61524;50.938;11.396;2022-11-20T16:00:21;26.02;;;10.35;;
73296;SDS011;61524;50.938;11.396;2022-11-20T16:02:47;27.08;;;9.48;;
73296;SDS011;61524;50.938;11.396;2022-11-20T16:05:12;23.13;;;9.48;;
73296;SDS011;61524;50.938;11.396;2022-11-20T16:07:39;20.50;;;8.75;;
73296;SDS011;61524;50.938;11.396;2022-11-20T16:10:05;21.85;;;9.55;;
73296;SDS011;61524;50.938;11.396;2022-11-20T16:12:31;27.52;;;9.68;;
73296;SDS011;61524;50.938;11.396;2022-11-20T16:15:15;19.85;;;8.73;;
73296;SDS011;61524;50.938;11.396;2022-11-20T16:17:59;19.88;;;9.90;;
73296;SDS011;61524;50.938;11.396;2022-11-20T16:20:24;28.08;;;9.10;;
73296;SDS011;61524;50.938;11.396;2022-11-20T16:22:50;22.77;;;9.23;;
73296;SDS011;61524;50.938;11.396;2022-11-20T16:25:15;28.25;;;12.05;;
73296;SDS011;61524;50.938;11.396;2022-11-20T16:27:41;33.90;;;15.35;;
73296;SDS011;61524;50.938;11.396;2022-11-20T16:30:06;29.13;;;12.85;;
73296;SDS011;61524;50.938;11.396;2022-11-20T16:32:32;28.50;;;11.55;;